DEOMR EDDN-EDDN

Flight info

Callsign DEOMR
Flight time 0h 12m
Altitude 3000
Route VFR PLATZRUNDEN
Aircraft C172/L-SFG/C

Departure

Time 2026-05-07 13:23
Airport Nuremberg Airport (EDDN)

Arrival

Time 2026-05-07 13:35
Airport Nuremberg Airport (EDDN)
Time Latitude Longitude Altitude Speed Heading
2026-05-07 12:42 49.49460 11.06873 1021 ft 0 kts 278°
2026-05-07 13:16 49.49464 11.06867 1021 ft 4 kts 342°
2026-05-07 13:16 49.49468 11.06906 1021 ft 3 kts 58°
2026-05-07 13:17 49.49508 11.06922 1021 ft 10 kts 17°
2026-05-07 13:17 49.49514 11.07030 1021 ft 13 kts 100°
2026-05-07 13:17 49.49503 11.07136 1021 ft 7 kts 100°
2026-05-07 13:17 49.49508 11.07185 1021 ft 3 kts 42°
2026-05-07 13:18 49.49541 11.07196 1021 ft 9 kts
2026-05-07 13:18 49.49625 11.07221 1020 ft 10 kts 45°
2026-05-07 13:18 49.49631 11.07310 1020 ft 9 kts 99°
2026-05-07 13:18 49.49616 11.07449 1020 ft 16 kts 95°
2026-05-07 13:19 49.49599 11.07629 1021 ft 15 kts 99°
2026-05-07 13:19 49.49604 11.07754 1022 ft 10 kts 33°
2026-05-07 13:19 49.49662 11.07771 1022 ft 8 kts 353°
2026-05-07 13:19 49.49714 11.07734 1021 ft 8 kts 334°
2026-05-07 13:20 49.49764 11.07698 1020 ft 8 kts 334°
2026-05-07 13:20 49.49774 11.07690 1020 ft 0 kts 334°
2026-05-07 13:20 49.49775 11.07690 1020 ft 1 kts 333°
2026-05-07 13:20 49.49824 11.07654 1020 ft 11 kts 335°
2026-05-07 13:21 49.49886 11.07595 1021 ft 10 kts 297°
2026-05-07 13:21 49.49892 11.07562 1021 ft 0 kts 280°
2026-05-07 13:21 49.49898 11.07509 1020 ft 23 kts 279°
2026-05-07 13:22 49.49942 11.07039 1037 ft 59 kts 278°
2026-05-07 13:22 49.50000 11.06410 1213 ft 59 kts 271°
2026-05-07 13:22 49.50064 11.05756 1335 ft 66 kts 276°
2026-05-07 13:22 49.50163 11.05086 1487 ft 66 kts 277°
2026-05-07 13:23 49.50233 11.04346 1562 ft 78 kts 272°
2026-05-07 13:23 49.50034 11.03574 1718 ft 87 kts 214°
2026-05-07 13:23 49.49391 11.03384 1840 ft 98 kts 198°
2026-05-07 13:23 49.48721 11.03224 2101 ft 90 kts 197°
2026-05-07 13:24 49.48011 11.03253 2093 ft 118 kts 161°
2026-05-07 13:24 49.47480 11.04268 2159 ft 131 kts 105°
2026-05-07 13:24 49.47334 11.05656 2218 ft 136 kts 97°
2026-05-07 13:24 49.47191 11.07141 2163 ft 141 kts 97°
2026-05-07 13:25 49.47046 11.08656 2112 ft 143 kts 97°
2026-05-07 13:25 49.46932 11.10119 2149 ft 133 kts 96°
2026-05-07 13:25 49.46827 11.11574 2117 ft 141 kts 95°
2026-05-07 13:25 49.46925 11.12986 2095 ft 126 kts 60°
2026-05-07 13:26 49.47535 11.13754 1938 ft 109 kts 17°
2026-05-07 13:26 49.48200 11.13985 1858 ft 93 kts 355°
2026-05-07 13:26 49.48825 11.13918 1777 ft 88 kts 327°
2026-05-07 13:26 49.49234 11.13204 1587 ft 97 kts 291°
2026-05-07 13:27 49.49437 11.12170 1390 ft 104 kts 281°
2026-05-07 13:27 49.49548 11.11179 1316 ft 73 kts 278°
2026-05-07 13:27 49.49610 11.10467 1199 ft 67 kts 278°
2026-05-07 13:27 49.49674 11.09770 1118 ft 65 kts 279°
2026-05-07 13:28 49.49740 11.09118 1043 ft 54 kts 280°
2026-05-07 13:28 49.49791 11.08561 1084 ft 54 kts 277°
2026-05-07 13:28 49.49849 11.07883 1173 ft 68 kts 279°
2026-05-07 13:28 49.49916 11.07137 1371 ft 71 kts 279°
2026-05-07 13:29 49.49987 11.06395 1534 ft 69 kts 280°
2026-05-07 13:29 49.50054 11.05609 1591 ft 79 kts 277°
2026-05-07 13:29 49.49986 11.04785 1716 ft 82 kts 240°
2026-05-07 13:29 49.49445 11.04461 1906 ft 90 kts 193°
2026-05-07 13:30 49.48753 11.04339 1917 ft 109 kts 195°
2026-05-07 13:30 49.47995 11.04226 2101 ft 111 kts 192°
2026-05-07 13:30 49.47210 11.04153 2223 ft 115 kts 191°
2026-05-07 13:30 49.46413 11.04403 2284 ft 128 kts 143°
2026-05-07 13:31 49.46180 11.05705 2384 ft 129 kts 79°
2026-05-07 13:31 49.46335 11.07032 2551 ft 130 kts 76°
2026-05-07 13:31 49.46468 11.08430 2615 ft 135 kts 82°
2026-05-07 13:31 49.46536 11.09401 2638 ft 138 kts 82°
2026-05-07 13:32 49.46645 11.10882 2684 ft 142 kts 83°
2026-05-07 13:32 49.46754 11.12400 2583 ft 142 kts 82°
2026-05-07 13:32 49.46841 11.13908 2414 ft 139 kts 84°
2026-05-07 13:32 49.47068 11.15255 2380 ft 124 kts 41°
2026-05-07 13:33 49.47813 11.15732 2294 ft 113 kts
2026-05-07 13:33 49.48527 11.15624 2298 ft 100 kts 324°
2026-05-07 13:33 49.48994 11.14829 2093 ft 106 kts 299°
2026-05-07 13:33 49.49272 11.13770 1810 ft 108 kts 283°
2026-05-07 13:34 49.49411 11.12677 1557 ft 97 kts 278°
2026-05-07 13:34 49.49559 11.10960 1327 ft 70 kts 280°
2026-05-07 13:34 49.49622 11.10224 1189 ft 68 kts 281°
2026-05-07 13:35 49.49699 11.09527 1105 ft 63 kts 280°
2026-05-07 13:35 49.49764 11.08880 1051 ft 57 kts 279°
2026-05-07 13:35 49.49817 11.08345 1030 ft 45 kts 278°
2026-05-07 13:35 49.49857 11.07913 1024 ft 32 kts 279°
2026-05-07 13:36 49.49856 11.07676 1021 ft 13 kts 225°
2026-05-07 13:36 49.49797 11.07672 1020 ft 7 kts 153°
2026-05-07 13:36 49.49762 11.07698 1020 ft 0 kts 154°
2026-05-07 13:38 49.49757 11.07701 1021 ft 3 kts 159°
2026-05-07 13:38 49.49708 11.07737 1021 ft 13 kts 153°
2026-05-07 13:39 49.49653 11.07820 1022 ft 12 kts 99°
2026-05-07 13:39 49.49627 11.07865 1023 ft 4 kts 212°
2026-05-07 13:39 49.49622 11.07862 1023 ft 0 kts 192°
2026-05-07 13:48 49.49621 11.07862 1023 ft 1 kts 190°
2026-05-07 13:49 49.49579 11.07823 1022 ft 12 kts 270°
2026-05-07 13:49 49.49637 11.07771 1022 ft 12 kts
2026-05-07 13:49 49.49730 11.07723 1021 ft 16 kts 333°
2026-05-07 13:49 49.49773 11.07690 1020 ft 0 kts 333°
2026-05-07 13:51 49.49835 11.07641 1020 ft 21 kts 333°
2026-05-07 13:52 49.49896 11.07550 1021 ft 5 kts 279°
2026-05-07 13:52 49.49896 11.07548 1021 ft 0 kts 279°
2026-05-07 13:52 49.49908 11.07437 1020 ft 30 kts 278°
2026-05-07 13:53 49.49956 11.06951 1042 ft 58 kts 277°
2026-05-07 13:53 49.49999 11.06310 1199 ft 64 kts 258°
2026-05-07 13:53 49.49549 11.06023 1358 ft 79 kts 195°
2026-05-07 13:53 49.48974 11.05917 1465 ft 82 kts 195°
2026-05-07 13:54 49.48405 11.05854 1595 ft 87 kts 195°
2026-05-07 13:54 49.47777 11.05716 1758 ft 95 kts 194°
2026-05-07 13:54 49.47115 11.05903 1938 ft 109 kts 140°
2026-05-07 13:54 49.46922 11.07037 2064 ft 117 kts 89°
2026-05-07 13:55 49.46923 11.08363 2046 ft 130 kts 89°
2026-05-07 13:55 49.46919 11.09781 2060 ft 136 kts 93°
2026-05-07 13:55 49.46849 11.11176 2268 ft 131 kts 95°
2026-05-07 13:55 49.46788 11.12599 2336 ft 134 kts 84°
2026-05-07 13:56 49.46694 11.13977 2503 ft 128 kts 106°
2026-05-07 13:56 49.46516 11.15363 2511 ft 135 kts 95°
2026-05-07 13:56 49.46880 11.16540 2555 ft 123 kts 18°
2026-05-07 13:56 49.47688 11.16629 2585 ft 116 kts 352°
2026-05-07 13:57 49.48421 11.16256 2563 ft 112 kts 315°
2026-05-07 13:57 49.48763 11.15596 2457 ft 116 kts 298°
2026-05-07 13:57 49.49059 11.14514 2235 ft 90 kts 289°
2026-05-07 13:57 49.49215 11.13739 1974 ft 73 kts 284°
2026-05-07 13:58 49.49314 11.12959 1788 ft 78 kts 279°
2026-05-07 13:58 49.49420 11.12121 1645 ft 78 kts 279°
2026-05-07 13:58 49.49515 11.11305 1409 ft 79 kts 278°
2026-05-07 13:58 49.49596 11.10501 1290 ft 75 kts 278°
2026-05-07 13:59 49.49675 11.09753 1109 ft 65 kts 279°
2026-05-07 13:59 49.49740 11.09140 1043 ft 51 kts 279°
2026-05-07 13:59 49.49786 11.08659 1045 ft 47 kts 278°
2026-05-07 13:59 49.49817 11.08125 1107 ft 51 kts 269°
2026-05-07 14:00 49.49548 11.07767 1193 ft 63 kts 209°
2026-05-07 14:00 49.49105 11.07605 1319 ft 70 kts 200°
2026-05-07 14:00 49.48623 11.07470 1502 ft 73 kts 204°
2026-05-07 14:00 49.48094 11.07323 1585 ft 80 kts 197°
2026-05-07 14:01 49.47523 11.07220 1744 ft 83 kts 194°
2026-05-07 14:01 49.46928 11.07136 1923 ft 90 kts 190°
2026-05-07 14:01 49.46382 11.07576 2110 ft 103 kts 110°
2026-05-07 14:01 49.46274 11.08774 2115 ft 120 kts 96°
2026-05-07 14:02 49.46175 11.10065 2216 ft 124 kts 96°
2026-05-07 14:02 49.46077 11.11386 2355 ft 128 kts 96°
2026-05-07 14:02 49.46019 11.12730 2518 ft 121 kts 70°
2026-05-07 14:02 49.46654 11.13383 2511 ft 115 kts 355°
2026-05-07 14:03 49.47476 11.13294 2392 ft 125 kts 348°
2026-05-07 14:03 49.48319 11.12981 2229 ft 126 kts 331°
2026-05-07 14:03 49.49018 11.12259 1915 ft 116 kts 314°
2026-05-07 14:03 49.49455 11.11339 1542 ft 100 kts 289°
2026-05-07 14:04 49.49629 11.10248 1231 ft 109 kts 278°
2026-05-07 14:04 49.49721 11.09287 1084 ft 71 kts 280°
2026-05-07 14:04 49.49786 11.08675 1034 ft 48 kts 278°
2026-05-07 14:04 49.49824 11.08124 1164 ft 50 kts 273°
2026-05-07 14:05 49.49607 11.07666 1267 ft 76 kts 195°
2026-05-07 14:05 49.49028 11.07686 1442 ft 84 kts 185°
2026-05-07 14:05 49.48435 11.07699 1657 ft 85 kts 189°
2026-05-07 14:05 49.47823 11.07782 1771 ft 94 kts 171°
2026-05-07 14:06 49.47488 11.08675 1835 ft 114 kts 98°
2026-05-07 14:06 49.47328 11.09941 1924 ft 121 kts 100°
2026-05-07 14:06 49.47178 11.11205 2140 ft 124 kts 100°
2026-05-07 14:06 49.47027 11.12516 2289 ft 124 kts 100°
2026-05-07 14:07 49.46860 11.13825 2363 ft 128 kts 100°
2026-05-07 14:07 49.46719 11.15200 2407 ft 135 kts 98°
2026-05-07 14:07 49.46524 11.16632 2466 ft 135 kts 105°
2026-05-07 14:07 49.46293 11.18047 2493 ft 136 kts 103°
2026-05-07 14:08 49.46111 11.19456 2590 ft 134 kts 103°
2026-05-07 14:08 49.45934 11.20829 2670 ft 131 kts 102°
2026-05-07 14:08 49.45961 11.22162 2766 ft 125 kts 50°
2026-05-07 14:08 49.46649 11.22726 2773 ft 117 kts 350°
2026-05-07 14:09 49.47325 11.22149 2741 ft 113 kts 303°
2026-05-07 14:09 49.47708 11.21031 2572 ft 121 kts 299°
2026-05-07 14:09 49.48127 11.19896 2417 ft 124 kts 296°
2026-05-07 14:09 49.48474 11.18695 2287 ft 121 kts 289°
2026-05-07 14:10 49.48742 11.17469 2104 ft 123 kts 288°
2026-05-07 14:10 49.48966 11.16299 1878 ft 103 kts 284°
2026-05-07 14:10 49.49114 11.15336 1736 ft 89 kts 279°
2026-05-07 14:10 49.49218 11.14394 1637 ft 92 kts 278°
2026-05-07 14:11 49.49311 11.13408 1554 ft 96 kts 278°
2026-05-07 14:11 49.49406 11.12402 1466 ft 90 kts 280°
2026-05-07 14:11 49.49500 11.11469 1358 ft 88 kts 277°
2026-05-07 14:11 49.49593 11.10534 1275 ft 84 kts 279°
2026-05-07 14:12 49.49676 11.09749 1138 ft 68 kts 279°
2026-05-07 14:12 49.49747 11.09036 1048 ft 66 kts 279°
2026-05-07 14:12 49.49812 11.08421 1072 ft 51 kts 279°
2026-05-07 14:12 49.49967 11.07837 1166 ft 69 kts 324°
2026-05-07 14:13 49.50480 11.07881 1355 ft 75 kts
2026-05-07 14:13 49.51042 11.08047 1466 ft 87 kts
2026-05-07 14:13 49.51560 11.08521 1632 ft 104 kts 77°
2026-05-07 14:13 49.51471 11.09691 1704 ft 118 kts 101°
2026-05-07 14:14 49.51333 11.10954 1830 ft 116 kts 101°
2026-05-07 14:14 49.51144 11.12074 1878 ft 104 kts 107°
2026-05-07 14:14 49.50982 11.13136 1952 ft 109 kts 100°
2026-05-07 14:14 49.50820 11.14320 2112 ft 118 kts 102°
2026-05-07 14:15 49.50701 11.15558 2344 ft 116 kts 96°
2026-05-07 14:15 49.50589 11.16807 2521 ft 114 kts 97°
2026-05-07 14:15 49.50485 11.18058 2601 ft 122 kts 96°
2026-05-07 14:15 49.50328 11.19339 2633 ft 119 kts 110°
2026-05-07 14:16 49.50057 11.20503 2583 ft 113 kts 112°
2026-05-07 14:16 49.49527 11.21231 2475 ft 107 kts 172°
2026-05-07 14:16 49.48814 11.21472 2414 ft 100 kts 180°
2026-05-07 14:16 49.48628 11.20882 2321 ft 102 kts 326°
2026-05-07 14:17 49.48965 11.19967 2150 ft 117 kts 269°
2026-05-07 14:17 49.48933 11.18693 2050 ft 121 kts 269°
2026-05-07 14:17 49.48910 11.17404 1939 ft 118 kts 274°
2026-05-07 14:17 49.48992 11.16223 1822 ft 102 kts 279°
2026-05-07 14:18 49.49117 11.15137 1710 ft 105 kts 279°
2026-05-07 14:18 49.49250 11.13996 1597 ft 110 kts 278°
2026-05-07 14:18 49.49364 11.12852 1446 ft 100 kts 278°
2026-05-07 14:18 49.49454 11.11850 1414 ft 85 kts 279°
2026-05-07 14:19 49.49538 11.11123 1332 ft 60 kts 277°
2026-05-07 14:19 49.49580 11.10499 1226 ft 61 kts 281°
2026-05-07 14:19 49.49635 11.10054 1155 ft 67 kts 279°
2026-05-07 14:19 49.49710 11.09355 1083 ft 67 kts 280°
2026-05-07 14:20 49.49780 11.08661 1038 ft 61 kts 280°
2026-05-07 14:20 49.49843 11.08025 1035 ft 66 kts 280°
2026-05-07 14:20 49.49921 11.07251 1168 ft 76 kts 279°
2026-05-07 14:20 49.50002 11.06426 1368 ft 76 kts 279°
2026-05-07 14:21 49.50075 11.05583 1514 ft 83 kts 279°
2026-05-07 14:21 49.50145 11.04728 1720 ft 78 kts 280°
2026-05-07 14:21 49.49731 11.04246 1867 ft 95 kts 188°
2026-05-07 14:21 49.49037 11.04241 1920 ft 102 kts 189°
2026-05-07 14:22 49.48041 11.04143 1943 ft 113 kts 193°
2026-05-07 14:22 49.47524 11.04049 2000 ft 113 kts 194°
2026-05-07 14:22 49.46738 11.04079 2126 ft 122 kts 165°
2026-05-07 14:22 49.46234 11.05136 2210 ft 129 kts 97°
2026-05-07 14:23 49.46211 11.06465 2379 ft 127 kts 89°
2026-05-07 14:23 49.46196 11.07850 2451 ft 132 kts 90°
2026-05-07 14:23 49.46207 11.09231 2670 ft 124 kts 86°
2026-05-07 14:23 49.46123 11.10596 2680 ft 134 kts 98°
2026-05-07 14:24 49.46027 11.11994 2749 ft 129 kts 92°
2026-05-07 14:24 49.46250 11.13046 2810 ft 121 kts 41°
2026-05-07 14:24 49.46986 11.13565 2761 ft 116 kts
2026-05-07 14:24 49.47652 11.13714 2624 ft 86 kts 346°
2026-05-07 14:25 49.48172 11.13407 2395 ft 76 kts 333°
2026-05-07 14:25 49.48616 11.13073 2180 ft 68 kts 319°
2026-05-07 14:25 49.49021 11.12550 1897 ft 85 kts 311°
2026-05-07 14:25 49.49341 11.11778 1600 ft 88 kts 288°
2026-05-07 14:26 49.49512 11.10919 1390 ft 78 kts 280°
2026-05-07 14:26 49.49627 11.10116 1225 ft 75 kts 281°
2026-05-07 14:26 49.49717 11.09324 1081 ft 75 kts 278°
2026-05-07 14:26 49.49791 11.08568 1035 ft 65 kts 278°
2026-05-07 14:27 49.49843 11.08002 1025 ft 41 kts 278°
2026-05-07 14:27 49.49857 11.07678 1021 ft 20 kts 223°
2026-05-07 14:27 49.49768 11.07693 1020 ft 0 kts 151°
2026-05-07 14:29 49.49752 11.07705 1021 ft 9 kts 156°
2026-05-07 14:29 49.49661 11.07768 1022 ft 12 kts 163°
2026-05-07 14:29 49.49596 11.07668 1021 ft 20 kts 281°
2026-05-07 14:30 49.49621 11.07415 1020 ft 28 kts 278°
2026-05-07 14:30 49.49614 11.07214 1020 ft 16 kts 192°
2026-05-07 14:30 49.49501 11.07158 1021 ft 12 kts 268°
2026-05-07 14:30 49.49518 11.06990 1021 ft 20 kts 282°
2026-05-07 14:31 49.49445 11.06898 1021 ft 10 kts 239°
2026-05-07 14:31 49.49443 11.06872 1021 ft 0 kts 279°